sensor_id;sensor_type;location;lat;lon;timestamp;pressure;altitude;pressure_sealevel;temperature;humidity
18784;BME280;9520;50.954;6.968;2023-03-03T00:00:21;101579.03;;;11.44;41.67
18784;BME280;9520;50.954;6.968;2023-03-03T00:00:43;101582.56;;;11.43;41.70
18784;BME280;9520;50.954;6.968;2023-03-03T00:01:05;101593.97;;;11.45;41.78
18784;BME280;9520;50.954;6.968;2023-03-03T00:01:27;101593.09;;;11.45;41.80
18784;BME280;9520;50.954;6.968;2023-03-03T00:01:50;101589.59;;;11.43;41.81
18784;BME280;9520;50.954;6.968;2023-03-03T00:02:12;101595.75;;;11.40;41.78
18784;BME280;9520;50.954;6.968;2023-03-03T00:02:34;101594.03;;;11.39;41.95
18784;BME280;9520;50.954;6.968;2023-03-03T00:02:57;101586.09;;;11.39;41.87
18784;BME280;9520;50.954;6.968;2023-03-03T00:03:24;101594.03;;;11.36;41.82
18784;BME280;9520;50.954;6.968;2023-03-03T00:03:47;101594.03;;;11.36;41.86
18784;BME280;9520;50.954;6.968;2023-03-03T00:04:09;101591.38;;;11.38;41.82
18784;BME280;9520;50.954;6.968;2023-03-03T00:04:32;101590.50;;;11.36;41.99
18784;BME280;9520;50.954;6.968;2023-03-03T00:04:54;101598.41;;;11.37;41.98
18784;BME280;9520;50.954;6.968;2023-03-03T00:05:16;101599.31;;;11.35;41.96
18784;BME280;9520;50.954;6.968;2023-03-03T00:05:38;101591.41;;;11.35;41.94
18784;BME280;9520;50.954;6.968;2023-03-03T00:06:01;101597.56;;;11.31;42.09
18784;BME280;9520;50.954;6.968;2023-03-03T00:06:25;101596.69;;;11.29;42.06
18784;BME280;9520;50.954;6.968;2023-03-03T00:06:47;101598.47;;;11.30;42.14
18784;BME280;9520;50.954;6.968;2023-03-03T00:07:10;101608.13;;;11.31;42.09
18784;BME280;9520;50.954;6.968;2023-03-03T00:07:32;101572.09;;;11.19;42.00
18784;BME280;9520;50.954;6.968;2023-03-03T00:07:54;101600.22;;;11.29;41.76
18784;BME280;9520;50.954;6.968;2023-03-03T00:08:17;101598.44;;;11.31;41.94
18784;BME280;9520;50.954;6.968;2023-03-03T00:08:38;101595.81;;;11.28;42.08
18784;BME280;9520;50.954;6.968;2023-03-03T00:09:00;101594.94;;;11.29;42.09
18784;BME280;9520;50.954;6.968;2023-03-03T00:09:23;101595.81;;;11.28;42.12
18784;BME280;9520;50.954;6.968;2023-03-03T00:09:44;101595.81;;;11.26;41.85
18784;BME280;9520;50.954;6.968;2023-03-03T00:10:07;101596.69;;;11.29;42.00
18784;BME280;9520;50.954;6.968;2023-03-03T00:10:28;101600.19;;;11.31;42.03
18784;BME280;9520;50.954;6.968;2023-03-03T00:10:50;101602.84;;;11.32;41.91
18784;BME280;9520;50.954;6.968;2023-03-03T00:11:13;101596.69;;;11.32;41.89
18784;BME280;9520;50.954;6.968;2023-03-03T00:11:36;101596.69;;;11.35;41.80
18784;BME280;9520;50.954;6.968;2023-03-03T00:11:58;101601.97;;;11.32;41.74
18784;BME280;9520;50.954;6.968;2023-03-03T00:12:23;101595.81;;;11.33;41.88
18784;BME280;9520;50.954;6.968;2023-03-03T00:12:47;101601.97;;;11.33;41.82
18784;BME280;9520;50.954;6.968;2023-03-03T00:13:14;101598.44;;;11.31;41.75
18784;BME280;9520;50.954;6.968;2023-03-03T00:13:47;101593.19;;;11.30;41.81
18784;BME280;9520;50.954;6.968;2023-03-03T00:14:17;101594.91;;;11.31;41.99
18784;BME280;9520;50.954;6.968;2023-03-03T00:14:42;101601.09;;;11.25;41.88
18784;BME280;9520;50.954;6.968;2023-03-03T00:15:13;101605.50;;;11.27;41.99
18784;BME280;9520;50.954;6.968;2023-03-03T00:15:35;101594.94;;;11.26;41.97
18784;BME280;9520;50.954;6.968;2023-03-03T00:16:11;101600.25;;;11.18;42.04
18784;BME280;9520;50.954;6.968;2023-03-03T00:16:37;101600.22;;;11.20;42.12
18784;BME280;9520;50.954;6.968;2023-03-03T00:17:00;101597.59;;;11.20;42.06
18784;BME280;9520;50.954;6.968;2023-03-03T00:17:33;101600.25;;;11.17;41.99
18784;BME280;9520;50.954;6.968;2023-03-03T00:17:55;101597.63;;;11.09;42.16
18784;BME280;9520;50.954;6.968;2023-03-03T00:18:21;101590.59;;;11.05;42.34
18784;BME280;9520;50.954;6.968;2023-03-03T00:18:48;101601.13;;;11.05;42.23
18784;BME280;9520;50.954;6.968;2023-03-03T00:19:13;101594.09;;;11.07;42.28
18784;BME280;9520;50.954;6.968;2023-03-03T00:19:37;101592.34;;;11.06;42.38
18784;BME280;9520;50.954;6.968;2023-03-03T00:20:01;101592.38;;;11.05;42.37
18784;BME280;9520;50.954;6.968;2023-03-03T00:20:47;101593.25;;;11.02;42.34
18784;BME280;9520;50.954;6.968;2023-03-03T00:21:20;101595.00;;;11.00;42.46
18784;BME280;9520;50.954;6.968;2023-03-03T00:21:45;101597.66;;;11.03;42.42
18784;BME280;9520;50.954;6.968;2023-03-03T00:22:15;101595.00;;;11.05;42.41
18784;BME280;9520;50.954;6.968;2023-03-03T00:22:41;101592.38;;;11.05;42.30
18784;BME280;9520;50.954;6.968;2023-03-03T00:23:23;101594.09;;;11.06;42.39
18784;BME280;9520;50.954;6.968;2023-03-03T00:23:46;101599.38;;;11.06;42.15
18784;BME280;9520;50.954;6.968;2023-03-03T00:24:16;101594.09;;;11.07;42.35
18784;BME280;9520;50.954;6.968;2023-03-03T00:24:38;101591.47;;;11.07;42.41
18784;BME280;9520;50.954;6.968;2023-03-03T00:25:23;101593.22;;;11.05;42.20
18784;BME280;9520;50.954;6.968;2023-03-03T00:25:49;101595.84;;;11.05;42.31
18784;BME280;9520;50.954;6.968;2023-03-03T00:26:17;101596.72;;;11.10;42.23
18784;BME280;9520;50.954;6.968;2023-03-03T00:26:44;101598.50;;;11.08;42.20
18784;BME280;9520;50.954;6.968;2023-03-03T00:27:16;101572.16;;;10.93;42.31
18784;BME280;9520;50.954;6.968;2023-03-03T00:27:44;101599.38;;;11.06;42.29
18784;BME280;9520;50.954;6.968;2023-03-03T00:28:09;101592.38;;;10.96;42.43
18784;BME280;9520;50.954;6.968;2023-03-03T00:28:43;101587.97;;;10.99;42.39
18784;BME280;9520;50.954;6.968;2023-03-03T00:29:23;101596.78;;;10.92;42.55
18784;BME280;9520;50.954;6.968;2023-03-03T00:29:49;101601.19;;;10.93;42.51
18784;BME280;9520;50.954;6.968;2023-03-03T00:30:16;101599.44;;;10.94;42.59
18784;BME280;9520;50.954;6.968;2023-03-03T00:30:40;101600.31;;;10.94;42.50
18784;BME280;9520;50.954;6.968;2023-03-03T00:31:11;101602.94;;;10.94;42.46
18784;BME280;9520;50.954;6.968;2023-03-03T00:31:36;101603.81;;;10.92;42.53
18784;BME280;9520;50.954;6.968;2023-03-03T00:32:15;101595.03;;;10.90;42.47
18784;BME280;9520;50.954;6.968;2023-03-03T00:32:43;101604.69;;;10.92;42.62
18784;BME280;9520;50.954;6.968;2023-03-03T00:33:18;101596.81;;;10.89;42.47
18784;BME280;9520;50.954;6.968;2023-03-03T00:33:46;101593.28;;;10.87;42.67
18784;BME280;9520;50.954;6.968;2023-03-03T00:34:19;101603.84;;;10.82;42.63
18784;BME280;9520;50.954;6.968;2023-03-03T00:34:45;101602.97;;;10.83;42.75
18784;BME280;9520;50.954;6.968;2023-03-03T00:35:21;101597.69;;;10.79;42.48
18784;BME280;9520;50.954;6.968;2023-03-03T00:35:44;101599.44;;;10.86;42.68
18784;BME280;9520;50.954;6.968;2023-03-03T00:36:21;101602.97;;;10.90;42.54
18784;BME280;9520;50.954;6.968;2023-03-03T00:36:51;101593.28;;;10.81;42.57
18784;BME280;9520;50.954;6.968;2023-03-03T00:37:29;101598.56;;;10.90;42.51
18784;BME280;9520;50.954;6.968;2023-03-03T00:37:54;101595.03;;;10.83;42.48
18784;BME280;9520;50.954;6.968;2023-03-03T00:38:17;101604.69;;;10.92;42.47
18784;BME280;9520;50.954;6.968;2023-03-03T00:38:39;101599.41;;;10.91;42.41
18784;BME280;9520;50.954;6.968;2023-03-03T00:39:28;101610.00;;;10.95;42.39
18784;BME280;9520;50.954;6.968;2023-03-03T00:39:52;101603.81;;;10.96;42.34
18784;BME280;9520;50.954;6.968;2023-03-03T00:40:19;101601.19;;;10.99;42.21
18784;BME280;9520;50.954;6.968;2023-03-03T00:40:41;101604.69;;;10.98;42.19
18784;BME280;9520;50.954;6.968;2023-03-03T00:41:13;101602.94;;;10.97;42.17
18784;BME280;9520;50.954;6.968;2023-03-03T00:41:38;101603.78;;;11.01;42.15
18784;BME280;9520;50.954;6.968;2023-03-03T00:42:04;101607.31;;;11.01;42.04
18784;BME280;9520;50.954;6.968;2023-03-03T00:42:32;101602.91;;;11.02;42.21
18784;BME280;9520;50.954;6.968;2023-03-03T00:42:59;101609.06;;;11.02;42.14
18784;BME280;9520;50.954;6.968;2023-03-03T00:43:23;101596.78;;;10.95;42.05
18784;BME280;9520;50.954;6.968;2023-03-03T00:43:45;101601.16;;;10.96;42.17
18784;BME280;9520;50.954;6.968;2023-03-03T00:44:31;101609.97;;;10.97;42.29
18784;BME280;9520;50.954;6.968;2023-03-03T00:44:57;101606.44;;;10.96;42.20
18784;BME280;9520;50.954;6.968;2023-03-03T00:45:27;101612.63;;;10.95;42.21
18784;BME280;9520;50.954;6.968;2023-03-03T00:45:50;101616.13;;;10.96;42.19
18784;BME280;9520;50.954;6.968;2023-03-03T00:46:14;101613.50;;;10.94;42.22
18784;BME280;9520;50.954;6.968;2023-03-03T00:46:39;101614.38;;;10.93;42.23
18784;BME280;9520;50.954;6.968;2023-03-03T00:47:13;101618.78;;;10.91;42.22
18784;BME280;9520;50.954;6.968;2023-03-03T00:47:42;101618.78;;;10.88;42.23
18784;BME280;9520;50.954;6.968;2023-03-03T00:48:19;101615.28;;;10.89;42.26
18784;BME280;9520;50.954;6.968;2023-03-03T00:48:42;101622.28;;;10.86;42.21
18784;BME280;9520;50.954;6.968;2023-03-03T00:49:18;101617.03;;;10.89;42.28
18784;BME280;9520;50.954;6.968;2023-03-03T00:49:41;101610.88;;;10.82;42.32
18784;BME280;9520;50.954;6.968;2023-03-03T00:50:22;101615.28;;;10.85;42.39
18784;BME280;9520;50.954;6.968;2023-03-03T00:50:46;101616.16;;;10.82;42.32
18784;BME280;9520;50.954;6.968;2023-03-03T00:51:19;101610.88;;;10.85;42.28
18784;BME280;9520;50.954;6.968;2023-03-03T00:51:42;101619.69;;;10.84;42.35
18784;BME280;9520;50.954;6.968;2023-03-03T00:52:11;101610.00;;;10.81;42.70
18784;BME280;9520;50.954;6.968;2023-03-03T00:52:36;101610.03;;;10.75;42.22
18784;BME280;9520;50.954;6.968;2023-03-03T00:53:03;101616.16;;;10.77;42.47
18784;BME280;9520;50.954;6.968;2023-03-03T00:53:26;101613.53;;;10.73;42.58
18784;BME280;9520;50.954;6.968;2023-03-03T00:53:49;101610.03;;;10.75;42.48
18784;BME280;9520;50.954;6.968;2023-03-03T00:54:11;101612.66;;;10.78;42.22
18784;BME280;9520;50.954;6.968;2023-03-03T00:54:33;101613.50;;;10.77;42.37
18784;BME280;9520;50.954;6.968;2023-03-03T00:54:54;101615.28;;;10.78;42.34
18784;BME280;9520;50.954;6.968;2023-03-03T00:55:16;101613.50;;;10.77;42.46
18784;BME280;9520;50.954;6.968;2023-03-03T00:55:38;101613.53;;;10.79;42.50
18784;BME280;9520;50.954;6.968;2023-03-03T00:56:01;101613.53;;;10.74;42.42
18784;BME280;9520;50.954;6.968;2023-03-03T00:56:23;101609.13;;;10.75;42.54
18784;BME280;9520;50.954;6.968;2023-03-03T00:56:45;101611.75;;;10.72;42.62
18784;BME280;9520;50.954;6.968;2023-03-03T00:57:08;101606.47;;;10.72;42.62
18784;BME280;9520;50.954;6.968;2023-03-03T00:57:30;101612.63;;;10.72;42.64
18784;BME280;9520;50.954;6.968;2023-03-03T00:57:53;101602.97;;;10.68;42.57
18784;BME280;9520;50.954;6.968;2023-03-03T00:58:20;101611.78;;;10.75;42.63
18784;BME280;9520;50.954;6.968;2023-03-03T00:58:43;101610.00;;;10.74;42.63
18784;BME280;9520;50.954;6.968;2023-03-03T00:59:09;101617.94;;;10.75;42.60
18784;BME280;9520;50.954;6.968;2023-03-03T00:59:31;101619.69;;;10.72;42.55
18784;BME280;9520;50.954;6.968;2023-03-03T00:59:53;101610.88;;;10.76;42.36
18784;BME280;9520;50.954;6.968;2023-03-03T01:00:15;101612.66;;;10.74;42.55
18784;BME280;9520;50.954;6.968;2023-03-03T01:00:38;101614.41;;;10.72;42.47
18784;BME280;9520;50.954;6.968;2023-03-03T01:01:03;101614.41;;;10.70;42.62
18784;BME280;9520;50.954;6.968;2023-03-03T01:01:33;101613.53;;;10.67;42.71
18784;BME280;9520;50.954;6.968;2023-03-03T01:01:55;101612.63;;;10.66;42.64
18784;BME280;9520;50.954;6.968;2023-03-03T01:02:17;101596.81;;;10.59;42.70
18784;BME280;9520;50.954;6.968;2023-03-03T01:02:40;101613.53;;;10.65;42.64
18784;BME280;9520;50.954;6.968;2023-03-03T01:03:04;101609.13;;;10.66;42.63
18784;BME280;9520;50.954;6.968;2023-03-03T01:03:26;101611.78;;;10.64;42.63
18784;BME280;9520;50.954;6.968;2023-03-03T01:03:48;101602.97;;;10.64;42.66
18784;BME280;9520;50.954;6.968;2023-03-03T01:04:10;101611.78;;;10.69;42.65
18784;BME280;9520;50.954;6.968;2023-03-03T01:04:32;101607.38;;;10.68;42.72
18784;BME280;9520;50.954;6.968;2023-03-03T01:04:54;101610.88;;;10.67;42.53
18784;BME280;9520;50.954;6.968;2023-03-03T01:05:17;101612.63;;;10.66;42.64
18784;BME280;9520;50.954;6.968;2023-03-03T01:05:39;101613.53;;;10.65;42.73
18784;BME280;9520;50.954;6.968;2023-03-03T01:06:01;101610.91;;;10.64;42.74
18784;BME280;9520;50.954;6.968;2023-03-03T01:06:26;101610.00;;;10.63;42.84
18784;BME280;9520;50.954;6.968;2023-03-03T01:06:48;101609.13;;;10.63;42.74
18784;BME280;9520;50.954;6.968;2023-03-03T01:07:10;101610.03;;;10.65;42.80
18784;BME280;9520;50.954;6.968;2023-03-03T01:07:33;101603.84;;;10.66;42.84
18784;BME280;9520;50.954;6.968;2023-03-03T01:07:55;101614.41;;;10.66;42.80
18784;BME280;9520;50.954;6.968;2023-03-03T01:08:16;101610.91;;;10.64;42.94
18784;BME280;9520;50.954;6.968;2023-03-03T01:08:40;101610.00;;;10.62;42.88
18784;BME280;9520;50.954;6.968;2023-03-03T01:09:02;101608.25;;;10.62;42.62
18784;BME280;9520;50.954;6.968;2023-03-03T01:09:23;101611.78;;;10.63;42.72
18784;BME280;9520;50.954;6.968;2023-03-03T01:09:45;101608.25;;;10.64;42.81
18784;BME280;9520;50.954;6.968;2023-03-03T01:10:07;101612.66;;;10.63;42.82
18784;BME280;9520;50.954;6.968;2023-03-03T01:10:31;101603.88;;;10.54;42.81
18784;BME280;9520;50.954;6.968;2023-03-03T01:10:57;101592.44;;;10.53;42.90
18784;BME280;9520;50.954;6.968;2023-03-03T01:11:23;101610.03;;;10.60;42.87
18784;BME280;9520;50.954;6.968;2023-03-03T01:11:46;101617.06;;;10.60;42.87
18784;BME280;9520;50.954;6.968;2023-03-03T01:12:11;101612.63;;;10.51;42.93
18784;BME280;9520;50.954;6.968;2023-03-03T01:12:34;101616.19;;;10.55;43.04
18784;BME280;9520;50.954;6.968;2023-03-03T01:12:55;101609.16;;;10.51;42.95
18784;BME280;9520;50.954;6.968;2023-03-03T01:13:20;101616.19;;;10.55;42.88
18784;BME280;9520;50.954;6.968;2023-03-03T01:13:46;101619.69;;;10.54;42.83
18784;BME280;9520;50.954;6.968;2023-03-03T01:14:09;101597.69;;;10.43;42.93
18784;BME280;9520;50.954;6.968;2023-03-03T01:14:30;101600.34;;;10.39;43.06
18784;BME280;9520;50.954;6.968;2023-03-03T01:14:52;101617.91;;;10.51;42.93
18784;BME280;9520;50.954;6.968;2023-03-03T01:15:16;101619.69;;;10.51;42.95
18784;BME280;9520;50.954;6.968;2023-03-03T01:15:39;101619.69;;;10.49;42.98
18784;BME280;9520;50.954;6.968;2023-03-03T01:16:01;101603.84;;;10.38;42.93
18784;BME280;9520;50.954;6.968;2023-03-03T01:16:23;101621.44;;;10.47;42.97
18784;BME280;9520;50.954;6.968;2023-03-03T01:16:45;101622.31;;;10.48;42.94
18784;BME280;9520;50.954;6.968;2023-03-03T01:17:07;101617.94;;;10.45;42.88
18784;BME280;9520;50.954;6.968;2023-03-03T01:17:30;101622.31;;;10.43;42.93
18784;BME280;9520;50.954;6.968;2023-03-03T01:17:53;101617.03;;;10.42;42.78
18784;BME280;9520;50.954;6.968;2023-03-03T01:18:15;101624.97;;;10.45;42.83
18784;BME280;9520;50.954;6.968;2023-03-03T01:18:37;101618.78;;;10.47;42.90
18784;BME280;9520;50.954;6.968;2023-03-03T01:19:00;101614.41;;;10.46;42.93
18784;BME280;9520;50.954;6.968;2023-03-03T01:19:22;101613.53;;;10.49;42.92
18784;BME280;9520;50.954;6.968;2023-03-03T01:19:44;101622.31;;;10.52;42.85
18784;BME280;9520;50.954;6.968;2023-03-03T01:20:07;101588.91;;;10.34;42.85
18784;BME280;9520;50.954;6.968;2023-03-03T01:20:29;101611.78;;;10.51;42.75
18784;BME280;9520;50.954;6.968;2023-03-03T01:20:52;101594.19;;;10.36;42.67
18784;BME280;9520;50.954;6.968;2023-03-03T01:21:13;101618.81;;;10.50;42.76
18784;BME280;9520;50.954;6.968;2023-03-03T01:21:35;101621.44;;;10.49;42.85
18784;BME280;9520;50.954;6.968;2023-03-03T01:21:57;101613.53;;;10.46;42.75
18784;BME280;9520;50.954;6.968;2023-03-03T01:22:19;101610.00;;;10.42;42.85
18784;BME280;9520;50.954;6.968;2023-03-03T01:22:41;101617.94;;;10.48;42.83
18784;BME280;9520;50.954;6.968;2023-03-03T01:23:04;101616.16;;;10.47;42.70
18784;BME280;9520;50.954;6.968;2023-03-03T01:23:26;101621.44;;;10.49;42.77
18784;BME280;9520;50.954;6.968;2023-03-03T01:23:48;101617.06;;;10.49;42.73
18784;BME280;9520;50.954;6.968;2023-03-03T01:24:09;101625.81;;;10.47;42.85
18784;BME280;9520;50.954;6.968;2023-03-03T01:24:31;101621.47;;;10.46;42.81
18784;BME280;9520;50.954;6.968;2023-03-03T01:24:53;101626.72;;;10.46;42.91
18784;BME280;9520;50.954;6.968;2023-03-03T01:25:15;101627.59;;;10.45;42.79
18784;BME280;9520;50.954;6.968;2023-03-03T01:25:37;101617.03;;;10.43;42.85
18784;BME280;9520;50.954;6.968;2023-03-03T01:26:00;101625.84;;;10.41;42.96
18784;BME280;9520;50.954;6.968;2023-03-03T01:26:21;101632.00;;;10.44;42.90
18784;BME280;9520;50.954;6.968;2023-03-03T01:26:43;101621.44;;;10.43;42.89
18784;BME280;9520;50.954;6.968;2023-03-03T01:27:05;101621.44;;;10.43;42.97
18784;BME280;9520;50.954;6.968;2023-03-03T01:27:29;101624.06;;;10.43;42.80
18784;BME280;9520;50.954;6.968;2023-03-03T01:27:51;101624.06;;;10.38;42.83
18784;BME280;9520;50.954;6.968;2023-03-03T01:28:13;101617.03;;;10.37;42.95
18784;BME280;9520;50.954;6.968;2023-03-03T01:28:34;101621.41;;;10.36;42.97
18784;BME280;9520;50.954;6.968;2023-03-03T01:28:57;101613.50;;;10.32;42.92
18784;BME280;9520;50.954;6.968;2023-03-03T01:29:19;101620.53;;;10.37;42.93
18784;BME280;9520;50.954;6.968;2023-03-03T01:29:40;101618.78;;;10.36;42.94
18784;BME280;9520;50.954;6.968;2023-03-03T01:30:03;101615.25;;;10.31;42.86
18784;BME280;9520;50.954;6.968;2023-03-03T01:30:25;101620.56;;;10.34;43.07
18784;BME280;9520;50.954;6.968;2023-03-03T01:30:48;101623.16;;;10.31;42.99
18784;BME280;9520;50.954;6.968;2023-03-03T01:31:09;101624.06;;;10.33;43.10
18784;BME280;9520;50.954;6.968;2023-03-03T01:31:31;101616.16;;;10.32;43.06
18784;BME280;9520;50.954;6.968;2023-03-03T01:31:53;101624.06;;;10.33;43.09
18784;BME280;9520;50.954;6.968;2023-03-03T01:32:15;101621.44;;;10.35;43.18
18784;BME280;9520;50.954;6.968;2023-03-03T01:32:38;101614.41;;;10.31;43.24
18784;BME280;9520;50.954;6.968;2023-03-03T01:33:00;101626.72;;;10.35;43.16
18784;BME280;9520;50.954;6.968;2023-03-03T01:33:21;101622.31;;;10.32;43.21
18784;BME280;9520;50.954;6.968;2023-03-03T01:33:44;101620.53;;;10.28;43.16
18784;BME280;9520;50.954;6.968;2023-03-03T01:34:06;101622.28;;;10.28;43.14
18784;BME280;9520;50.954;6.968;2023-03-03T01:34:28;101617.00;;;10.26;43.35
18784;BME280;9520;50.954;6.968;2023-03-03T01:34:50;101618.81;;;10.26;43.23
18784;BME280;9520;50.954;6.968;2023-03-03T01:35:11;101620.53;;;10.27;43.30
18784;BME280;9520;50.954;6.968;2023-03-03T01:35:34;101615.28;;;10.28;43.38
18784;BME280;9520;50.954;6.968;2023-03-03T01:35:57;101627.56;;;10.23;43.27
18784;BME280;9520;50.954;6.968;2023-03-03T01:36:22;101621.41;;;10.27;43.19
18784;BME280;9520;50.954;6.968;2023-03-03T01:36:44;101612.66;;;10.25;43.28
18784;BME280;9520;50.954;6.968;2023-03-03T01:37:06;101624.06;;;10.30;43.10
18784;BME280;9520;50.954;6.968;2023-03-03T01:37:28;101614.41;;;10.25;43.07
18784;BME280;9520;50.954;6.968;2023-03-03T01:37:50;101625.81;;;10.28;43.18
18784;BME280;9520;50.954;6.968;2023-03-03T01:38:12;101617.00;;;10.26;43.14
18784;BME280;9520;50.954;6.968;2023-03-03T01:39:14;101613.53;;;10.30;43.24
18784;BME280;9520;50.954;6.968;2023-03-03T01:39:36;101602.97;;;10.20;43.00
18784;BME280;9520;50.954;6.968;2023-03-03T01:39:57;101621.41;;;10.27;43.09
18784;BME280;9520;50.954;6.968;2023-03-03T01:40:22;101616.16;;;10.24;43.12
18784;BME280;9520;50.954;6.968;2023-03-03T01:40:51;101619.66;;;10.23;43.22
18784;BME280;9520;50.954;6.968;2023-03-03T01:41:13;101625.81;;;10.24;43.17
18784;BME280;9520;50.954;6.968;2023-03-03T01:41:34;101628.44;;;10.24;43.21
18784;BME280;9520;50.954;6.968;2023-03-03T01:41:57;101619.66;;;10.22;43.28
18784;BME280;9520;50.954;6.968;2023-03-03T01:42:20;101631.09;;;10.21;43.36
18784;BME280;9520;50.954;6.968;2023-03-03T01:42:43;101629.34;;;10.24;43.24
18784;BME280;9520;50.954;6.968;2023-03-03T01:43:05;101624.91;;;10.26;43.33
18784;BME280;9520;50.954;6.968;2023-03-03T01:43:28;101631.97;;;10.26;43.23
18784;BME280;9520;50.954;6.968;2023-03-03T01:43:51;101621.41;;;10.21;43.27
18784;BME280;9520;50.954;6.968;2023-03-03T01:44:13;101622.31;;;10.20;43.36
18784;BME280;9520;50.954;6.968;2023-03-03T01:44:35;101628.44;;;10.19;43.27
18784;BME280;9520;50.954;6.968;2023-03-03T01:45:10;101630.19;;;10.17;43.41
18784;BME280;9520;50.954;6.968;2023-03-03T01:45:44;101626.69;;;10.18;43.41
18784;BME280;9520;50.954;6.968;2023-03-03T01:46:39;101629.31;;;10.23;43.34
18784;BME280;9520;50.954;6.968;2023-03-03T01:47:06;101630.19;;;10.23;43.25
18784;BME280;9520;50.954;6.968;2023-03-03T01:47:32;101626.69;;;10.20;43.36
18784;BME280;9520;50.954;6.968;2023-03-03T01:47:59;101631.09;;;10.24;43.20
18784;BME280;9520;50.954;6.968;2023-03-03T01:48:25;101631.97;;;10.23;43.23
18784;BME280;9520;50.954;6.968;2023-03-03T01:48:48;101629.31;;;10.23;43.36
18784;BME280;9520;50.954;6.968;2023-03-03T01:49:14;101624.94;;;10.20;43.24
18784;BME280;9520;50.954;6.968;2023-03-03T01:49:39;101627.56;;;10.16;43.31
18784;BME280;9520;50.954;6.968;2023-03-03T01:50:11;101630.22;;;10.16;43.63
18784;BME280;9520;50.954;6.968;2023-03-03T01:50:41;101625.75;;;10.10;43.78
18784;BME280;9520;50.954;6.968;2023-03-03T01:51:14;101629.25;;;10.12;43.56
18784;BME280;9520;50.954;6.968;2023-03-03T01:51:44;101628.38;;;10.12;43.63
18784;BME280;9520;50.954;6.968;2023-03-03T01:52:11;101631.00;;;10.12;43.59
18784;BME280;9520;50.954;6.968;2023-03-03T01:52:35;101630.13;;;10.08;43.68
18784;BME280;9520;50.954;6.968;2023-03-03T01:53:01;101629.28;;;10.11;43.71
18784;BME280;9520;50.954;6.968;2023-03-03T01:53:28;101626.63;;;10.12;43.47
18784;BME280;9520;50.954;6.968;2023-03-03T01:53:53;101594.09;;;9.98;43.63
18784;BME280;9520;50.954;6.968;2023-03-03T01:54:20;101622.22;;;10.07;43.73
18784;BME280;9520;50.954;6.968;2023-03-03T01:54:49;101611.69;;;10.10;43.61
18784;BME280;9520;50.954;6.968;2023-03-03T01:55:17;101620.50;;;10.15;43.43
18784;BME280;9520;50.954;6.968;2023-03-03T01:55:41;101612.56;;;10.13;43.44
18784;BME280;9520;50.954;6.968;2023-03-03T01:56:05;101611.72;;;10.11;43.41
18784;BME280;9520;50.954;6.968;2023-03-03T01:56:28;101617.84;;;10.13;43.47
18784;BME280;9520;50.954;6.968;2023-03-03T01:56:50;101624.91;;;10.11;43.45
18784;BME280;9520;50.954;6.968;2023-03-03T01:57:17;101624.91;;;10.11;43.49
18784;BME280;9520;50.954;6.968;2023-03-03T01:57:47;101614.34;;;10.05;43.54
18784;BME280;9520;50.954;6.968;2023-03-03T01:58:16;101614.34;;;10.05;43.45
18784;BME280;9520;50.954;6.968;2023-03-03T01:58:44;101623.09;;;10.04;43.52
18784;BME280;9520;50.954;6.968;2023-03-03T01:59:08;101619.59;;;10.05;43.70
18784;BME280;9520;50.954;6.968;2023-03-03T01:59:34;101623.09;;;10.07;43.65
18784;BME280;9520;50.954;6.968;2023-03-03T01:59:59;101626.63;;;10.05;43.46
18784;BME280;9520;50.954;6.968;2023-03-03T02:00:22;101624.88;;;10.05;43.46
18784;BME280;9520;50.954;6.968;2023-03-03T02:00:50;101623.97;;;10.03;43.52
18784;BME280;9520;50.954;6.968;2023-03-03T02:01:15;101623.97;;;10.03;43.55
18784;BME280;9520;50.954;6.968;2023-03-03T02:01:40;101624.00;;;10.06;43.62
18784;BME280;9520;50.954;6.968;2023-03-03T02:02:02;101620.47;;;10.07;43.57
18784;BME280;9520;50.954;6.968;2023-03-03T02:02:25;101626.63;;;10.09;43.55
18784;BME280;9520;50.954;6.968;2023-03-03T02:02:48;101624.00;;;10.06;43.36
18784;BME280;9520;50.954;6.968;2023-03-03T02:03:11;101619.59;;;10.05;43.50
18784;BME280;9520;50.954;6.968;2023-03-03T02:03:33;101622.22;;;10.07;43.53
18784;BME280;9520;50.954;6.968;2023-03-03T02:03:55;101625.75;;;10.07;43.53
18784;BME280;9520;50.954;6.968;2023-03-03T02:04:17;101623.09;;;10.04;43.67
18784;BME280;9520;50.954;6.968;2023-03-03T02:04:39;101622.22;;;10.07;43.58
18784;BME280;9520;50.954;6.968;2023-03-03T02:05:02;101624.88;;;10.08;43.61
18784;BME280;9520;50.954;6.968;2023-03-03T02:05:24;101621.38;;;10.06;43.49
18784;BME280;9520;50.954;6.968;2023-03-03T02:05:47;101631.03;;;10.09;43.37
18784;BME280;9520;50.954;6.968;2023-03-03T02:06:13;101622.22;;;10.07;43.51
18784;BME280;9520;50.954;6.968;2023-03-03T02:06:39;101630.16;;;10.05;43.62
18784;BME280;9520;50.954;6.968;2023-03-03T02:07:05;101618.69;;;10.02;43.62
18784;BME280;9520;50.954;6.968;2023-03-03T02:07:30;101623.09;;;10.04;43.48
18784;BME280;9520;50.954;6.968;2023-03-03T02:07:52;101624.88;;;10.04;43.63
18784;BME280;9520;50.954;6.968;2023-03-03T02:08:18;101626.63;;;10.00;43.50
18784;BME280;9520;50.954;6.968;2023-03-03T02:08:48;101623.97;;;9.97;43.52
18784;BME280;9520;50.954;6.968;2023-03-03T02:09:16;101629.22;;;9.97;43.55
18784;BME280;9520;50.954;6.968;2023-03-03T02:09:48;101618.69;;;9.94;43.51
18784;BME280;9520;50.954;6.968;2023-03-03T02:10:14;101620.44;;;9.93;43.76
18784;BME280;9520;50.954;6.968;2023-03-03T02:10:36;101623.94;;;9.88;43.71
18784;BME280;9520;50.954;6.968;2023-03-03T02:10:58;101630.09;;;9.93;43.76
18784;BME280;9520;50.954;6.968;2023-03-03T02:11:20;101628.38;;;9.95;43.75
18784;BME280;9520;50.954;6.968;2023-03-03T02:11:44;101622.19;;;9.90;43.62
18784;BME280;9520;50.954;6.968;2023-03-03T02:12:10;101629.22;;;9.94;43.71
18784;BME280;9520;50.954;6.968;2023-03-03T02:12:36;101630.97;;;9.93;43.68
18784;BME280;9520;50.954;6.968;2023-03-03T02:13:01;101630.97;;;9.92;43.80
18784;BME280;9520;50.954;6.968;2023-03-03T02:13:22;101627.44;;;9.87;43.79